createdAt,value
2023-10-21T00:00:50.286Z,97948.22
2023-10-21T00:03:16.700Z,97951.53
2023-10-21T00:05:43.196Z,97952.06
2023-10-21T00:08:09.791Z,97960.75
2023-10-21T00:10:36.206Z,97957.69
2023-10-21T00:13:02.714Z,97961.28
2023-10-21T00:15:29.192Z,97962.47
2023-10-21T00:17:55.647Z,97960.22
2023-10-21T00:20:22.113Z,97972.66
2023-10-21T00:22:48.478Z,97976.81
2023-10-21T00:25:14.892Z,97975.94
2023-10-21T00:27:41.237Z,97967.03
2023-10-21T00:30:08.187Z,97970.88
2023-10-21T00:32:35.111Z,97981.13
2023-10-21T00:35:02.046Z,97977.63
2023-10-21T00:37:28.436Z,97974.75
2023-10-21T00:39:54.795Z,97977.72
2023-10-21T00:42:21.205Z,97978.09
2023-10-21T00:44:48.133Z,97979.72
2023-10-21T00:47:14.595Z,97980.88
2023-10-21T00:49:41.080Z,97979.97
2023-10-21T00:52:07.813Z,97983.53
2023-10-21T00:54:34.329Z,97984.22
2023-10-21T00:57:00.861Z,97975.34
2023-10-21T00:59:27.282Z,97986.31
2023-10-21T01:01:53.715Z,97981.66
2023-10-21T01:04:20.892Z,97983.78
2023-10-21T01:06:47.548Z,97986.09
2023-10-21T01:09:17.068Z,97998.72
2023-10-21T01:11:43.818Z,97994.59
2023-10-21T01:14:10.610Z,97998.38
2023-10-21T01:16:37.553Z,97990.63
2023-10-21T01:19:07.210Z,97993.03
2023-10-21T01:21:33.719Z,98000.31
2023-10-21T01:24:00.147Z,98000.47
2023-10-21T01:26:26.767Z,98014.06
2023-10-21T01:28:53.143Z,98020.66
2023-10-21T01:31:19.505Z,98025.22
2023-10-21T01:33:46.171Z,98036.75
2023-10-21T01:36:12.749Z,98025.34
2023-10-21T01:38:39.977Z,98031.78
2023-10-21T01:41:09.216Z,98032.53
2023-10-21T01:43:35.580Z,98030.75
2023-10-21T01:46:06.178Z,98025.63
2023-10-21T01:48:32.723Z,98041.63
2023-10-21T01:51:01.316Z,98050.03
2023-10-21T01:53:27.762Z,98055.31
2023-10-21T01:56:04.281Z,98059.34
2023-10-21T01:58:32.724Z,98058.97
2023-10-21T02:00:59.173Z,98063.59
2023-10-21T02:03:26.633Z,98071.44
2023-10-21T02:05:53.349Z,98072.50
2023-10-21T02:08:19.728Z,98077.72
2023-10-21T02:10:46.104Z,98083.53
2023-10-21T02:13:12.465Z,98093.06
2023-10-21T02:15:40.063Z,98100.41
2023-10-21T02:18:09.409Z,98120.84
2023-10-21T02:20:37.070Z,98114.06
2023-10-21T02:23:04.143Z,98116.66
2023-10-21T02:25:32.503Z,98129.00
2023-10-21T02:28:00.897Z,98139.91
2023-10-21T02:30:27.389Z,98151.75
2023-10-21T02:32:53.871Z,98157.06
2023-10-21T02:35:20.395Z,98160.56
2023-10-21T02:37:46.858Z,98170.91
2023-10-21T02:40:17.045Z,98170.91
2023-10-21T02:42:45.332Z,98184.78
2023-10-21T02:45:12.113Z,98189.78
2023-10-21T02:47:38.992Z,98196.13
2023-10-21T02:50:05.973Z,98204.97
2023-10-21T02:52:32.536Z,98214.13
2023-10-21T02:54:58.871Z,98216.75
2023-10-21T02:57:25.465Z,98233.59
2023-10-21T02:59:52.030Z,98232.34
2023-10-21T03:02:18.419Z,98236.81
2023-10-21T03:04:44.912Z,98238.25
2023-10-21T03:07:11.596Z,98246.31
2023-10-21T03:09:38.247Z,98249.00
2023-10-21T03:12:05.142Z,98249.06
2023-10-21T03:14:31.523Z,98260.97
2023-10-21T03:16:57.894Z,98271.00
2023-10-21T03:19:24.300Z,98273.81
2023-10-21T03:21:50.694Z,98273.34
2023-10-21T03:24:17.140Z,98278.59
2023-10-21T03:26:43.562Z,98287.94
2023-10-21T03:29:12.873Z,98287.34
2023-10-21T03:31:40.697Z,98297.84
2023-10-21T03:34:07.121Z,98298.19
2023-10-21T03:36:33.492Z,98303.16
2023-10-21T03:38:59.914Z,98307.94
2023-10-21T03:41:26.302Z,98318.53
2023-10-21T03:43:52.679Z,98315.19
2023-10-21T03:46:19.080Z,98321.28
2023-10-21T03:48:45.951Z,98330.53
2023-10-21T03:51:13.216Z,98337.44
2023-10-21T03:53:44.555Z,98345.31
2023-10-21T03:56:11.804Z,98348.19
2023-10-21T03:58:39.010Z,98356.53
2023-10-21T04:01:06.204Z,98359.31
2023-10-21T04:03:33.676Z,98360.59
2023-10-21T04:06:00.895Z,98358.09
2023-10-21T04:08:28.879Z,98371.03
2023-10-21T04:10:55.710Z,98367.78
2023-10-21T04:13:22.541Z,98367.81
2023-10-21T04:15:50.351Z,98365.81
2023-10-21T04:18:17.211Z,98370.94
2023-10-21T04:20:43.788Z,98381.84
2023-10-21T04:23:10.169Z,98385.56
2023-10-21T04:25:36.566Z,98393.31
2023-10-21T04:28:03.093Z,98386.56
2023-10-21T04:30:29.703Z,98399.50
2023-10-21T04:32:56.690Z,98414.06
2023-10-21T04:35:23.517Z,98415.47
2023-10-21T04:37:49.959Z,98418.91
2023-10-21T04:40:16.624Z,98417.66
2023-10-21T04:42:43.041Z,98433.03
2023-10-21T04:45:10.641Z,98427.31
2023-10-21T04:47:37.654Z,98438.09
2023-10-21T04:50:05.261Z,98445.06
2023-10-21T04:52:32.330Z,98456.56
2023-10-21T04:54:59.209Z,98456.41
2023-10-21T04:57:25.726Z,98470.56
2023-10-21T04:59:52.153Z,98466.03
2023-10-21T05:02:18.540Z,98478.16
2023-10-21T05:04:44.998Z,98470.13
2023-10-21T05:07:11.459Z,98475.84
2023-10-21T05:09:37.826Z,98470.53
2023-10-21T05:12:04.537Z,98483.28
2023-10-21T05:14:31.020Z,98493.53
2023-10-21T05:16:57.456Z,98491.50
2023-10-21T05:19:24.188Z,98489.84
2023-10-21T05:21:50.613Z,98507.09
2023-10-21T05:24:16.973Z,98512.63
2023-10-21T05:26:43.511Z,98509.13
2023-10-21T05:29:09.930Z,98514.47
2023-10-21T05:31:36.740Z,98524.91
2023-10-21T05:34:03.450Z,98517.75
2023-10-21T05:36:30.738Z,98527.22
2023-10-21T05:38:57.824Z,98542.78
2023-10-21T05:41:24.583Z,98533.34
2023-10-21T05:43:50.977Z,98542.97
2023-10-21T05:46:17.422Z,98545.03
2023-10-21T05:48:43.943Z,98555.94
2023-10-21T05:51:10.422Z,98558.78
2023-10-21T05:53:36.873Z,98559.19
2023-10-21T05:56:03.854Z,98568.44
2023-10-21T05:58:33.821Z,98569.06
2023-10-21T06:01:09.558Z,98582.19
2023-10-21T06:03:40.483Z,98589.19
2023-10-21T06:06:08.553Z,98600.72
2023-10-21T06:08:35.099Z,98603.16
2023-10-21T06:11:01.463Z,98616.03
2023-10-21T06:13:27.954Z,98621.59
2023-10-21T06:15:54.692Z,98636.72
2023-10-21T06:18:21.879Z,98639.25
2023-10-21T06:20:52.667Z,98642.91
2023-10-21T06:23:19.193Z,98639.91
2023-10-21T06:25:46.615Z,98648.47
2023-10-21T06:28:14.719Z,98651.81
2023-10-21T06:30:42.201Z,98669.50
2023-10-21T06:33:12.747Z,98674.63
2023-10-21T06:35:40.338Z,98687.50
2023-10-21T06:38:09.604Z,98696.91
2023-10-21T06:40:49.844Z,98709.47
2023-10-21T06:43:22.028Z,98716.31
2023-10-21T06:45:48.463Z,98723.19
2023-10-21T06:48:14.962Z,98722.19
2023-10-21T06:50:41.905Z,98730.63
2023-10-21T06:53:08.322Z,98734.09
2023-10-21T06:55:45.599Z,98742.94
2023-10-21T06:58:13.029Z,98757.28
2023-10-21T07:00:40.079Z,98768.78
2023-10-21T07:03:07.126Z,98774.38
2023-10-21T07:05:34.693Z,98771.94
2023-10-21T07:08:01.145Z,98790.59
2023-10-21T07:10:31.819Z,98786.78
2023-10-21T07:13:01.465Z,98789.72
2023-10-21T07:15:35.018Z,98798.84
2023-10-21T07:18:01.747Z,98804.47
2023-10-21T07:20:28.436Z,98825.59
2023-10-21T07:22:55.768Z,98825.56
2023-10-21T07:25:24.628Z,98835.75
2023-10-21T07:27:51.276Z,98839.53
2023-10-21T07:30:17.808Z,98845.91
2023-10-21T07:32:45.476Z,98855.75
2023-10-21T07:35:11.882Z,98859.28
2023-10-21T07:37:38.581Z,98875.16
2023-10-21T07:40:06.750Z,98880.22
2023-10-21T07:42:33.236Z,98873.25
2023-10-21T07:44:59.813Z,98874.91
2023-10-21T07:47:26.409Z,98900.44
2023-10-21T07:49:55.664Z,98900.69
2023-10-21T07:52:23.107Z,98901.44
2023-10-21T07:54:49.580Z,98910.41
2023-10-21T07:57:16.820Z,98912.31
2023-10-21T07:59:43.462Z,98919.19
2023-10-21T08:02:09.953Z,98925.16
2023-10-21T08:04:36.702Z,98918.97
2023-10-21T08:07:03.408Z,98940.34
2023-10-21T08:09:29.857Z,98943.31
2023-10-21T08:11:56.290Z,98951.78
2023-10-21T08:14:22.694Z,98978.91
2023-10-21T08:16:49.150Z,98959.84
2023-10-21T08:19:15.547Z,98958.16
2023-10-21T08:21:42.177Z,98954.50
2023-10-21T08:24:08.962Z,98946.28
2023-10-21T08:26:35.450Z,98959.94
2023-10-21T08:29:02.090Z,98953.72
2023-10-21T08:31:29.523Z,98968.13
2023-10-21T08:33:56.144Z,98978.13
2023-10-21T08:36:23.473Z,98991.59
2023-10-21T08:38:51.556Z,98989.94
2023-10-21T08:41:18.369Z,98995.91
2023-10-21T08:43:48.357Z,99007.97
2023-10-21T08:46:17.074Z,99012.78
2023-10-21T08:48:48.519Z,99019.13
2023-10-21T08:51:22.970Z,99025.81
2023-10-21T08:53:53.745Z,99027.56
2023-10-21T08:56:20.454Z,99032.34
2023-10-21T08:58:47.288Z,99031.66
2023-10-21T09:01:17.252Z,99034.63
2023-10-21T09:03:44.305Z,99026.94
2023-10-21T09:06:12.280Z,99042.72
2023-10-21T09:08:41.880Z,99044.47
2023-10-21T09:11:09.348Z,99043.03
2023-10-21T09:13:36.977Z,99050.53
2023-10-21T09:16:06.161Z,99043.47
2023-10-21T09:18:36.142Z,99043.75
2023-10-21T09:21:03.762Z,99040.13
2023-10-21T09:23:31.044Z,99033.25
2023-10-21T09:25:57.399Z,99049.94
2023-10-21T09:28:25.355Z,99052.63
2023-10-21T09:31:03.345Z,99047.72
2023-10-21T09:33:29.814Z,99040.28
2023-10-21T09:36:18.857Z,99042.41
2023-10-21T09:38:52.457Z,99039.84
2023-10-21T09:41:20.783Z,99054.38
2023-10-21T09:43:48.739Z,99064.97
2023-10-21T09:46:19.151Z,99057.25
2023-10-21T09:48:48.910Z,99056.41
2023-10-21T09:51:18.973Z,99052.25
2023-10-21T09:53:49.020Z,99052.47
2023-10-21T09:56:18.925Z,99044.44
2023-10-21T09:58:46.738Z,99059.25
2023-10-21T10:01:14.125Z,99081.94
2023-10-21T10:03:45.074Z,99080.28
2023-10-21T10:06:13.945Z,99073.50
2023-10-21T10:08:42.050Z,99095.34
2023-10-21T10:11:16.769Z,99087.28
2023-10-21T10:13:50.311Z,99076.41
2023-10-21T10:16:28.611Z,99077.41
2023-10-21T10:18:58.113Z,99084.22
2023-10-21T10:21:25.075Z,99086.13
2023-10-21T10:23:53.214Z,99084.59
2023-10-21T10:26:35.112Z,99088.50
2023-10-21T10:29:19.566Z,99083.81
2023-10-21T10:31:49.758Z,99104.25
2023-10-21T10:34:18.394Z,99095.34
2023-10-21T10:36:47.524Z,99093.47
2023-10-21T10:39:41.291Z,99101.38
2023-10-21T10:42:08.359Z,99103.72
2023-10-21T10:44:36.008Z,99110.59
2023-10-21T10:47:06.280Z,99106.56
2023-10-21T10:49:59.091Z,99101.06
2023-10-21T10:52:36.670Z,99134.84
2023-10-21T10:55:04.401Z,99106.63
2023-10-21T10:57:31.545Z,99119.19
2023-10-21T10:59:58.496Z,99135.56
2023-10-21T11:02:29.319Z,99126.41
2023-10-21T11:05:01.695Z,99126.75
2023-10-21T11:07:31.926Z,99140.00
2023-10-21T11:10:07.591Z,99139.41
2023-10-21T11:12:34.082Z,99132.00
2023-10-21T11:15:07.148Z,99144.31
2023-10-21T11:17:34.177Z,99150.03
2023-10-21T11:20:03.772Z,99144.63
2023-10-21T11:22:30.544Z,99139.63
2023-10-21T11:24:57.207Z,99154.66
2023-10-21T11:27:23.995Z,99150.56
2023-10-21T11:29:53.377Z,99146.56
2023-10-21T11:32:28.454Z,99145.75
2023-10-21T11:35:05.666Z,99146.97
2023-10-21T11:37:33.021Z,99144.97
2023-10-21T11:39:59.593Z,99145.59
2023-10-21T11:42:26.132Z,99145.00
2023-10-21T11:45:01.028Z,99149.53
2023-10-21T11:47:29.099Z,99157.28
2023-10-21T11:49:57.008Z,99163.72
2023-10-21T11:52:25.688Z,99166.63
2023-10-21T11:55:16.417Z,99172.72
2023-10-21T11:58:03.677Z,99167.13
2023-10-21T12:00:39.292Z,99173.75
2023-10-21T12:03:40.626Z,99169.63
2023-10-21T12:06:09.995Z,99170.59
2023-10-21T12:09:06.023Z,99176.94
2023-10-21T12:11:32.420Z,99179.50
2023-10-21T12:14:04.345Z,99179.19
2023-10-21T12:16:35.796Z,99191.06
2023-10-21T12:19:05.338Z,99189.94
2023-10-21T12:22:00.372Z,99190.78
2023-10-21T12:24:26.825Z,99183.34
2023-10-21T12:26:53.301Z,99201.13
2023-10-21T12:29:32.217Z,99188.66
2023-10-21T12:32:17.698Z,99186.78
2023-10-21T12:35:07.261Z,99188.63
2023-10-21T12:37:52.136Z,99171.66
2023-10-21T12:40:34.919Z,99176.69
2023-10-21T12:43:16.710Z,99178.09
2023-10-21T12:45:47.565Z,99179.75
2023-10-21T12:48:20.830Z,99187.44
2023-10-21T12:50:51.657Z,99190.50
2023-10-21T12:53:18.998Z,99195.69
2023-10-21T12:55:45.713Z,99202.13
2023-10-21T12:58:12.264Z,99205.69
2023-10-21T13:00:42.639Z,99207.44
2023-10-21T13:03:12.378Z,99197.38
2023-10-21T13:05:39.796Z,99203.75
2023-10-21T13:08:10.147Z,99202.91
2023-10-21T13:10:37.818Z,99198.78
2023-10-21T13:13:06.953Z,99201.28
2023-10-21T13:15:33.598Z,99176.56
2023-10-21T13:18:04.688Z,99187.66
2023-10-21T13:20:31.747Z,99200.84
2023-10-21T13:22:58.094Z,99196.81
2023-10-21T13:25:28.988Z,99192.78
2023-10-21T13:27:57.836Z,99196.06
2023-10-21T13:30:24.285Z,99196.03
2023-10-21T13:32:52.283Z,99197.88
2023-10-21T13:35:18.747Z,99207.91
2023-10-21T13:37:46.860Z,99215.75
2023-10-21T13:40:17.644Z,99220.81
2023-10-21T13:42:52.267Z,99224.84
2023-10-21T13:45:21.925Z,99215.47
2023-10-21T13:47:54.584Z,99212.56
2023-10-21T13:50:24.670Z,99230.16
2023-10-21T13:52:58.354Z,99225.38
2023-10-21T13:55:25.345Z,99225.34
2023-10-21T13:57:51.863Z,99222.91
2023-10-21T14:00:35.088Z,99222.91
2023-10-21T14:03:10.671Z,99220.66
2023-10-21T14:05:42.693Z,99218.38
2023-10-21T14:08:11.949Z,99225.66
2023-10-21T14:10:44.649Z,99216.28
2023-10-21T14:13:16.795Z,99234.88
2023-10-21T14:15:45.418Z,99228.84
2023-10-21T14:18:12.108Z,99230.16
2023-10-21T14:20:43.334Z,99231.56
2023-10-21T14:23:10.410Z,99256.31
2023-10-21T14:25:41.166Z,99244.47
2023-10-21T14:28:12.218Z,99237.75
2023-10-21T14:30:43.100Z,99249.69
2023-10-21T14:33:12.440Z,99243.50
2023-10-21T14:35:40.349Z,99253.19
2023-10-21T14:38:07.587Z,99250.53
2023-10-21T14:40:34.378Z,99240.25
2023-10-21T14:43:00.951Z,99251.56
2023-10-21T14:45:27.370Z,99260.44
2023-10-21T14:47:53.969Z,99249.31
2023-10-21T14:50:20.398Z,99239.81
2023-10-21T14:52:46.763Z,99245.81
2023-10-21T14:55:13.355Z,99247.44
2023-10-21T14:57:39.833Z,99263.94
2023-10-21T15:00:07.122Z,99258.38
2023-10-21T15:02:34.785Z,99259.59
2023-10-21T15:05:01.290Z,99258.38
2023-10-21T15:07:27.697Z,99266.63
2023-10-21T15:09:54.082Z,99273.22
2023-10-21T15:12:20.623Z,99266.84
2023-10-21T15:14:55.842Z,99271.16
2023-10-21T15:17:26.438Z,99265.72
2023-10-21T15:19:52.986Z,99268.47
2023-10-21T15:22:19.357Z,99268.69
2023-10-21T15:24:45.853Z,99266.03
2023-10-21T15:27:12.809Z,99260.03
2023-10-21T15:29:39.238Z,99278.53
2023-10-21T15:32:08.537Z,99272.41
2023-10-21T15:34:35.196Z,99267.84
2023-10-21T15:37:01.744Z,99278.41
2023-10-21T15:39:28.215Z,99273.22
2023-10-21T15:41:54.634Z,99280.00
2023-10-21T15:44:21.689Z,99270.72
2023-10-21T15:46:48.048Z,99282.72
2023-10-21T15:49:14.428Z,99292.31
2023-10-21T15:51:40.914Z,99291.34
2023-10-21T15:54:07.458Z,99297.31
2023-10-21T15:56:34.292Z,99296.69
2023-10-21T15:59:00.797Z,99315.84
2023-10-21T16:01:30.016Z,99306.34
2023-10-21T16:03:56.635Z,99301.53
2023-10-21T16:06:23.179Z,99301.59
2023-10-21T16:08:49.658Z,99303.66
2023-10-21T16:11:16.800Z,99299.81
2023-10-21T16:13:43.238Z,99299.44
2023-10-21T16:16:10.015Z,99307.91
2023-10-21T16:18:36.577Z,99307.09
2023-10-21T16:21:03.143Z,99307.78
2023-10-21T16:23:29.536Z,99300.81
2023-10-21T16:25:57.878Z,99308.88
2023-10-21T16:28:24.435Z,99305.09
2023-10-21T16:30:50.904Z,99309.22
2023-10-21T16:33:17.418Z,99313.97
2023-10-21T16:35:45.159Z,99323.59
2023-10-21T16:38:12.334Z,99310.09
2023-10-21T16:40:38.915Z,99320.66
2023-10-21T16:43:05.474Z,99333.22
2023-10-21T16:45:31.862Z,99315.25
2023-10-21T16:47:58.287Z,99329.81
2023-10-21T16:50:25.137Z,99334.31
2023-10-21T16:52:51.500Z,99340.47
2023-10-21T16:55:17.941Z,99344.03
2023-10-21T16:57:44.387Z,99344.13
2023-10-21T17:00:13.623Z,99346.56
2023-10-21T17:02:41.154Z,99352.38
2023-10-21T17:05:08.208Z,99353.66
2023-10-21T17:07:34.683Z,99365.88
2023-10-21T17:10:01.076Z,99362.63
2023-10-21T17:12:28.375Z,99366.00
2023-10-21T17:14:54.824Z,99375.53
2023-10-21T17:17:21.172Z,99369.03
2023-10-21T17:19:47.632Z,99373.41
2023-10-21T17:22:14.031Z,99381.59
2023-10-21T17:24:40.550Z,99383.25
2023-10-21T17:27:06.926Z,99380.66
2023-10-21T17:29:33.275Z,99381.69
2023-10-21T17:31:59.625Z,99384.31
2023-10-21T17:34:28.530Z,99391.44
2023-10-21T17:36:56.340Z,99386.66
2023-10-21T17:39:22.783Z,99384.63
2023-10-21T17:41:49.253Z,99395.50
2023-10-21T17:44:16.152Z,99398.13
2023-10-21T17:46:44.702Z,99409.06
2023-10-21T17:49:14.169Z,99394.78
2023-10-21T17:51:40.602Z,99392.19
2023-10-21T17:54:08.443Z,99389.28
2023-10-21T17:56:37.824Z,99407.75
2023-10-21T17:59:07.114Z,99405.06
2023-10-21T18:01:34.643Z,99403.75
2023-10-21T18:04:01.319Z,99414.63
2023-10-21T18:06:28.711Z,99412.84
2023-10-21T18:08:55.888Z,99414.44
2023-10-21T18:11:23.450Z,99417.69
2023-10-21T18:13:49.938Z,99419.91
2023-10-21T18:16:17.654Z,99417.19
2023-10-21T18:18:44.405Z,99420.94
2023-10-21T18:21:11.468Z,99425.91
2023-10-21T18:23:37.945Z,99429.47
2023-10-21T18:26:06.124Z,99434.69
2023-10-21T18:28:34.997Z,99439.75
2023-10-21T18:31:01.758Z,99436.84
2023-10-21T18:33:28.391Z,99425.78
2023-10-21T18:35:54.822Z,99445.88
2023-10-21T18:38:21.250Z,99432.31
2023-10-21T18:40:47.795Z,99435.00
2023-10-21T18:43:14.274Z,99438.22
2023-10-21T18:45:40.788Z,99444.69
2023-10-21T18:48:07.245Z,99441.59
2023-10-21T18:50:33.718Z,99443.81
2023-10-21T18:53:00.163Z,99431.31
2023-10-21T18:55:26.611Z,99439.63
2023-10-21T18:57:53.010Z,99439.19
2023-10-21T19:00:19.668Z,99438.69
2023-10-21T19:02:46.199Z,99426.28
2023-10-21T19:05:12.626Z,99433.59
2023-10-21T19:07:39.312Z,99430.91
2023-10-21T19:10:07.605Z,99429.41
2023-10-21T19:12:34.215Z,99434.22
2023-10-21T19:15:01.557Z,99428.50
2023-10-21T19:17:28.444Z,99427.88
2023-10-21T19:19:54.877Z,99432.91
2023-10-21T19:22:21.228Z,99424.38
2023-10-21T19:24:47.692Z,99433.16
2023-10-21T19:27:14.209Z,99444.34
2023-10-21T19:29:40.605Z,99439.53
2023-10-21T19:32:07.164Z,99451.81
2023-10-21T19:34:34.544Z,99434.41
2023-10-21T19:37:00.973Z,99445.81
2023-10-21T19:39:30.367Z,99440.31
2023-10-21T19:41:57.084Z,99449.06
2023-10-21T19:44:27.155Z,99447.00
2023-10-21T19:46:55.593Z,99442.81
2023-10-21T19:49:24.122Z,99456.81
2023-10-21T19:51:51.031Z,99455.22
2023-10-21T19:54:17.486Z,99451.09
2023-10-21T19:56:43.875Z,99450.81
2023-10-21T19:59:10.317Z,99463.59
2023-10-21T20:01:36.817Z,99459.53
2023-10-21T20:04:03.593Z,99466.06
2023-10-21T20:06:31.448Z,99463.47
2023-10-21T20:08:57.885Z,99462.25
2023-10-21T20:11:24.761Z,99469.13
2023-10-21T20:13:51.201Z,99467.25
2023-10-21T20:16:17.758Z,99493.31
2023-10-21T20:18:45.962Z,99469.63
2023-10-21T20:21:13.738Z,99478.91
2023-10-21T20:23:43.408Z,99483.13
2023-10-21T20:26:14.970Z,99480.81
2023-10-21T20:28:42.154Z,99478.22
2023-10-21T20:31:09.426Z,99479.63
2023-10-21T20:33:36.977Z,99489.50
2023-10-21T20:36:10.705Z,99487.56
2023-10-21T20:38:39.199Z,99494.22
2023-10-21T20:41:14.682Z,99503.16
2023-10-21T20:43:42.292Z,99504.63
2023-10-21T20:46:09.785Z,99496.25
2023-10-21T20:48:39.415Z,99500.44
2023-10-21T20:51:07.767Z,99505.66
2023-10-21T20:53:34.195Z,99502.38
2023-10-21T20:56:00.820Z,99495.00
2023-10-21T20:58:27.353Z,99498.56
2023-10-21T21:00:54.963Z,99507.81
2023-10-21T21:03:22.995Z,99508.72
2023-10-21T21:05:49.421Z,99503.34
2023-10-21T21:08:16.233Z,99503.88
2023-10-21T21:10:42.645Z,99504.63
2023-10-21T21:13:09.128Z,99501.22
2023-10-21T21:15:35.960Z,99487.41
2023-10-21T21:18:03.042Z,99490.25
2023-10-21T21:20:29.592Z,99486.94
2023-10-21T21:22:55.946Z,99493.00
2023-10-21T21:25:22.330Z,99483.00
2023-10-21T21:27:51.602Z,99489.53
2023-10-21T21:30:18.420Z,99488.28
2023-10-21T21:32:45.216Z,99487.78
2023-10-21T21:35:11.748Z,99488.72
2023-10-21T21:37:38.114Z,99483.97
2023-10-21T21:40:05.459Z,99487.50
2023-10-21T21:42:32.070Z,99495.97
2023-10-21T21:44:58.481Z,99490.34
2023-10-21T21:47:24.970Z,99488.69
2023-10-21T21:49:51.398Z,99491.25
2023-10-21T21:52:17.804Z,99495.34
2023-10-21T21:54:46.462Z,99498.66
2023-10-21T21:57:13.316Z,99493.09
2023-10-21T21:59:41.236Z,99495.97
2023-10-21T22:02:09.952Z,99507.06
2023-10-21T22:04:37.282Z,99504.81
2023-10-21T22:07:04.269Z,99509.88
2023-10-21T22:09:31.236Z,99517.88
2023-10-21T22:11:59.948Z,99516.41
2023-10-21T22:14:26.497Z,99521.38
2023-10-21T22:16:53.031Z,99518.72
2023-10-21T22:19:19.387Z,99528.13
2023-10-21T22:21:51.656Z,99522.31
2023-10-21T22:24:18.861Z,99531.03
2023-10-21T22:26:48.450Z,99532.47
2023-10-21T22:29:16.020Z,99537.59
2023-10-21T22:31:43.232Z,99536.03
2023-10-21T22:34:10.057Z,99541.38
2023-10-21T22:36:36.532Z,99542.16
2023-10-21T22:39:05.033Z,99539.97
2023-10-21T22:41:31.524Z,99546.47
2023-10-21T22:43:58.176Z,99543.47
2023-10-21T22:46:24.657Z,99558.59
2023-10-21T22:48:51.127Z,99555.66
2023-10-21T22:51:19.008Z,99552.34
2023-10-21T22:53:45.689Z,99553.78
2023-10-21T22:56:12.571Z,99559.13
2023-10-21T22:58:39.469Z,99543.59
2023-10-21T23:01:10.201Z,99549.56
2023-10-21T23:03:36.890Z,99550.41
2023-10-21T23:06:06.685Z,99545.63
2023-10-21T23:08:38.918Z,99554.28
2023-10-21T23:11:06.781Z,99571.09
2023-10-21T23:13:33.622Z,99562.78
2023-10-21T23:16:00.087Z,99560.97
2023-10-21T23:18:27.039Z,99571.22
2023-10-21T23:20:54.757Z,99572.31
2023-10-21T23:23:22.643Z,99566.53
2023-10-21T23:25:49.777Z,99563.66
2023-10-21T23:28:16.440Z,99564.69
2023-10-21T23:30:42.905Z,99566.31
2023-10-21T23:33:09.638Z,99567.25
2023-10-21T23:35:37.682Z,99573.59
2023-10-21T23:38:06.100Z,99573.78
2023-10-21T23:40:32.484Z,99576.13
2023-10-21T23:42:59.605Z,99584.13
2023-10-21T23:45:26.158Z,99585.41
2023-10-21T23:47:52.927Z,99587.69
2023-10-21T23:50:19.910Z,99604.13
2023-10-21T23:52:46.633Z,99609.25
2023-10-21T23:55:14.022Z,99604.22
2023-10-21T23:57:41.625Z,99593.03
